Time;durP1;ratioP1;P1;durP2;ratioP2;P2;SDS_P1;SDS_P2;PMS_P1;PMS_P2;Temp;Humidity;BMP_temperature;BMP_pressure;BME280_temperature;BME280_humidity;BME280_pressure;Samples;Min_cycle;Max_cycle;Signal;HPM_P1;HPM_P2
2024/02/19 00:01:05;;;;;;;9.90;8.33;;;8.60;99.90;;;;;;5029518;28;20823;-57
2024/02/19 00:03:33;;;;;;;10.23;8.60;;;8.60;99.90;;;;;;5026468;28;20471;-57
2024/02/19 00:06:04;;;;;;;9.27;8.17;;;8.60;99.90;;;;;;5031027;28;20509;-57
2024/02/19 00:08:32;;;;;;;9.00;7.70;;;8.60;99.90;;;;;;5023649;28;20487;-58
2024/02/19 00:11:01;;;;;;;8.70;7.13;;;8.50;99.90;;;;;;5029896;28;20565;-56
2024/02/19 00:13:29;;;;;;;8.30;7.40;;;8.60;99.90;;;;;;5029577;28;20481;-56
2024/02/19 00:15:57;;;;;;;9.30;7.43;;;8.50;99.90;;;;;;5027277;28;20575;-58
2024/02/19 00:18:25;;;;;;;8.47;7.57;;;8.50;99.90;;;;;;5026945;28;20510;-58
2024/02/19 00:20:53;;;;;;;9.70;8.03;;;8.50;99.90;;;;;;5026797;28;20611;-57
2024/02/19 00:23:23;;;;;;;7.90;7.10;;;8.50;99.90;;;;;;5026432;28;20497;-58
2024/02/19 00:25:51;;;;;;;8.40;7.50;;;8.50;99.90;;;;;;5022897;28;20851;-58
2024/02/19 00:28:19;;;;;;;8.00;6.70;;;8.50;99.90;;;;;;4992805;28;1092659;-58
2024/02/19 00:30:47;;;;;;;8.40;7.53;;;8.50;99.90;;;;;;5029640;28;20200;-57
2024/02/19 00:33:16;;;;;;;9.50;7.23;;;8.50;99.90;;;;;;5023828;28;20576;-58
2024/02/19 00:35:44;;;;;;;9.40;7.90;;;8.50;99.90;;;;;;5025660;28;20556;-58
2024/02/19 00:38:12;;;;;;;8.50;7.20;;;8.50;99.90;;;;;;5029184;28;21661;-57
2024/02/19 00:40:42;;;;;;;8.60;7.70;;;8.50;99.90;;;;;;5032027;28;20471;-56
2024/02/19 00:43:11;;;;;;;9.67;8.57;;;8.50;99.90;;;;;;5030460;28;20470;-57
2024/02/19 00:45:39;;;;;;;8.97;7.47;;;8.40;99.90;;;;;;5024873;28;21034;-58
2024/02/19 00:48:07;;;;;;;9.00;8.07;;;8.40;99.90;;;;;;5028426;28;20490;-58
2024/02/19 00:50:35;;;;;;;10.47;8.40;;;8.30;99.90;;;;;;5023110;28;20505;-58
2024/02/19 00:53:04;;;;;;;10.23;8.43;;;8.40;99.90;;;;;;5022755;28;20473;-56
2024/02/19 00:55:32;;;;;;;9.73;8.30;;;8.40;99.90;;;;;;5024417;28;20867;-57
2024/02/19 00:58:02;;;;;;;9.80;8.13;;;8.40;99.90;;;;;;5021429;28;20598;-57
2024/02/19 01:00:30;;;;;;;9.73;8.13;;;8.40;99.90;;;;;;5023930;28;20457;-58
2024/02/19 01:02:59;;;;;;;10.03;8.50;;;8.40;99.90;;;;;;5024735;28;20503;-57
2024/02/19 01:05:27;;;;;;;7.63;6.83;;;8.40;99.90;;;;;;5022556;28;20486;-60
2024/02/19 01:07:55;;;;;;;8.50;7.60;;;8.40;99.90;;;;;;5023310;28;20498;-59
2024/02/19 01:10:23;;;;;;;7.43;6.73;;;8.40;99.90;;;;;;5029444;28;20843;-60
2024/02/19 01:12:51;;;;;;;6.20;5.60;;;8.40;99.90;;;;;;5022482;28;20486;-60
2024/02/19 01:15:20;;;;;;;6.30;5.70;;;8.30;99.90;;;;;;5019850;28;21086;-58
2024/02/19 01:17:49;;;;;;;5.33;4.83;;;8.30;99.90;;;;;;5023164;28;21088;-60
2024/02/19 01:20:20;;;;;;;4.33;3.93;;;8.30;99.90;;;;;;5021841;28;21387;-58
2024/02/19 01:22:48;;;;;;;3.00;2.70;;;8.20;99.90;;;;;;5019233;28;20558;-60
2024/02/19 01:25:16;;;;;;;2.10;2.00;;;8.20;99.90;;;;;;5021269;28;20473;-59
2024/02/19 01:27:44;;;;;;;1.60;1.50;;;8.20;99.90;;;;;;5018714;28;20956;-58
2024/02/19 01:30:13;;;;;;;1.50;1.40;;;8.10;99.90;;;;;;5021693;28;20475;-58
2024/02/19 01:32:43;;;;;;;1.33;1.23;;;8.10;99.90;;;;;;5020810;28;20479;-60
2024/02/19 01:35:11;;;;;;;1.30;1.20;;;8.00;99.90;;;;;;5024887;28;20538;-60
2024/02/19 01:37:39;;;;;;;1.70;1.60;;;8.00;99.90;;;;;;5023093;28;20501;-59
2024/02/19 01:40:09;;;;;;;1.50;1.30;;;7.90;99.90;;;;;;5022353;28;20463;-58
2024/02/19 01:42:38;;;;;;;2.37;2.17;;;7.90;99.90;;;;;;5020448;28;20775;-58
2024/02/19 01:45:22;;;;;;;2.13;1.93;;;7.80;99.90;;;;;;5018816;28;20554;-59
2024/02/19 01:47:51;;;;;;;1.93;1.80;;;7.80;99.90;;;;;;5015574;28;20494;-60
2024/02/19 01:50:19;;;;;;;3.20;2.30;;;7.80;99.90;;;;;;5019800;28;20478;-60
2024/02/19 01:52:49;;;;;;;3.10;2.33;;;7.70;99.90;;;;;;5019682;28;20939;-60
2024/02/19 01:55:19;;;;;;;2.50;2.20;;;7.70;99.90;;;;;;5023056;28;20909;-59
2024/02/19 01:57:48;;;;;;;2.30;1.90;;;7.70;99.90;;;;;;5021816;28;20498;-60
2024/02/19 02:00:17;;;;;;;2.33;2.00;;;7.60;99.90;;;;;;5023910;28;20494;-60
2024/02/19 02:02:45;;;;;;;2.23;2.03;;;7.50;99.90;;;;;;5021506;28;20533;-60
2024/02/19 02:05:15;;;;;;;3.57;2.10;;;7.50;99.90;;;;;;5022625;28;20470;-59
2024/02/19 02:07:45;;;;;;;1.57;1.47;;;7.50;99.90;;;;;;5020443;28;20859;-59
2024/02/19 02:10:13;;;;;;;2.20;1.97;;;7.50;99.90;;;;;;5022323;28;20994;-59
2024/02/19 02:12:41;;;;;;;2.40;2.20;;;7.50;99.90;;;;;;5025515;28;20565;-60
2024/02/19 02:15:10;;;;;;;2.30;2.10;;;7.50;99.90;;;;;;5030409;28;20512;-60
2024/02/19 02:17:38;;;;;;;3.10;2.20;;;7.40;99.90;;;;;;5031751;28;20486;-60
2024/02/19 02:20:07;;;;;;;3.03;2.33;;;7.40;99.90;;;;;;5033303;28;20482;-60
2024/02/19 02:22:38;;;;;;;2.57;2.37;;;7.40;99.90;;;;;;5032629;28;20482;-60
2024/02/19 02:25:07;;;;;;;3.00;2.70;;;7.40;99.90;;;;;;5031539;28;20905;-60
2024/02/19 02:27:37;;;;;;;2.37;2.17;;;7.40;99.90;;;;;;5030638;28;21095;-60
2024/02/19 02:30:08;;;;;;;2.43;2.23;;;7.30;99.90;;;;;;5026949;28;20470;-60
2024/02/19 02:32:37;;;;;;;3.10;2.80;;;7.30;99.90;;;;;;5030806;28;20536;-59
2024/02/19 02:35:06;;;;;;;3.30;3.00;;;7.20;99.90;;;;;;5019068;28;20561;-60
2024/02/19 02:37:34;;;;;;;3.67;3.37;;;7.20;99.90;;;;;;5022518;28;20514;-59
2024/02/19 02:40:02;;;;;;;2.73;2.50;;;7.20;99.90;;;;;;5027347;28;20458;-60
2024/02/19 02:42:30;;;;;;;3.37;3.03;;;7.20;99.90;;;;;;5029096;28;20466;-60
2024/02/19 02:44:59;;;;;;;5.20;2.10;;;7.20;99.90;;;;;;5027848;28;20475;-60
2024/02/19 02:47:27;;;;;;;2.43;2.23;;;7.20;99.90;;;;;;5026762;28;20494;-60
2024/02/19 02:49:55;;;;;;;3.07;2.37;;;7.20;99.90;;;;;;5019490;28;20498;-59
2024/02/19 02:52:23;;;;;;;3.93;2.53;;;7.20;99.90;;;;;;5027389;28;20529;-60
2024/02/19 02:54:51;;;;;;;3.77;2.50;;;7.10;99.90;;;;;;5026583;28;20525;-59
2024/02/19 02:57:20;;;;;;;4.23;2.53;;;7.20;99.90;;;;;;5024530;28;21024;-60
2024/02/19 02:59:48;;;;;;;2.37;1.97;;;7.10;99.90;;;;;;5028020;28;20467;-59
2024/02/19 03:02:17;;;;;;;2.50;2.30;;;7.20;99.90;;;;;;5027129;28;20474;-58
2024/02/19 03:04:45;;;;;;;2.27;2.07;;;7.20;99.90;;;;;;5027890;28;20475;-60
2024/02/19 03:07:13;;;;;;;2.00;1.90;;;7.20;99.90;;;;;;5031239;28;20485;-60
2024/02/19 03:09:41;;;;;;;2.07;1.80;;;7.20;99.90;;;;;;5030805;28;21087;-60
2024/02/19 03:12:09;;;;;;;2.27;1.93;;;7.20;99.90;;;;;;5030800;28;20497;-60
2024/02/19 03:14:37;;;;;;;2.03;1.90;;;7.20;99.90;;;;;;5031905;28;20564;-60
2024/02/19 03:17:07;;;;;;;1.97;1.77;;;7.10;99.90;;;;;;5031307;28;20844;-60
2024/02/19 03:19:36;;;;;;;3.57;2.10;;;7.10;99.90;;;;;;5032485;28;20475;-60
2024/02/19 03:22:04;;;;;;;3.30;1.70;;;7.10;99.90;;;;;;5032493;28;20475;-60
2024/02/19 03:24:32;;;;;;;6.00;2.47;;;7.10;99.90;;;;;;5036207;28;20467;-60
2024/02/19 03:27:04;;;;;;;4.37;2.43;;;7.10;99.90;;;;;;5035307;28;20507;-59
2024/02/19 03:29:32;;;;;;;3.40;1.97;;;7.10;99.90;;;;;;5036284;28;20471;-60
2024/02/19 03:32:00;;;;;;;2.80;2.10;;;7.10;99.90;;;;;;5034508;28;20484;-60
2024/02/19 03:34:28;;;;;;;4.23;2.23;;;7.10;99.90;;;;;;5024591;28;20470;-60
2024/02/19 03:36:58;;;;;;;1.90;1.60;;;7.10;99.90;;;;;;5023680;28;20551;-59
2024/02/19 03:39:26;;;;;;;2.73;2.27;;;7.20;99.90;;;;;;5026249;28;20462;-60
2024/02/19 03:41:54;;;;;;;2.00;1.53;;;7.10;99.90;;;;;;5022440;28;21034;-60
2024/02/19 03:44:23;;;;;;;2.03;1.80;;;7.10;99.90;;;;;;5019296;28;20470;-60
2024/02/19 03:46:51;;;;;;;2.80;1.83;;;7.10;99.90;;;;;;5023273;28;20525;-59
2024/02/19 03:49:18;;;;;;;5.30;1.77;;;7.10;99.90;;;;;;5027347;28;20478;-60
2024/02/19 03:51:47;;;;;;;5.20;1.87;;;7.10;99.90;;;;;;5028151;28;20492;-60
2024/02/19 03:54:16;;;;;;;3.80;2.03;;;7.10;99.90;;;;;;5021032;28;20475;-59
2024/02/19 03:56:44;;;;;;;2.80;1.60;;;7.10;99.90;;;;;;5025327;28;20516;-60
2024/02/19 03:59:12;;;;;;;2.60;1.63;;;7.10;99.90;;;;;;5022804;28;20478;-59
2024/02/19 04:01:40;;;;;;;3.70;2.03;;;7.10;99.90;;;;;;5024304;28;21258;-59
2024/02/19 04:04:08;;;;;;;2.60;1.40;;;7.10;99.90;;;;;;5025101;28;20473;-60
2024/02/19 04:06:36;;;;;;;3.77;2.47;;;7.10;99.90;;;;;;5022146;28;20486;-60
2024/02/19 04:09:05;;;;;;;3.20;1.30;;;7.10;99.90;;;;;;5024718;28;21394;-60
2024/02/19 04:11:34;;;;;;;1.90;1.30;;;7.00;99.90;;;;;;5031695;28;20470;-59
2024/02/19 04:14:02;;;;;;;1.87;1.20;;;7.00;99.90;;;;;;5025811;28;20466;-60
2024/02/19 04:16:30;;;;;;;1.23;1.10;;;7.00;99.90;;;;;;5026281;28;21070;-60
2024/02/19 04:18:58;;;;;;;3.03;1.23;;;7.00;99.90;;;;;;5026465;28;20906;-59
2024/02/19 04:21:26;;;;;;;1.73;1.20;;;6.90;99.90;;;;;;5029158;28;20498;-59
2024/02/19 04:23:55;;;;;;;1.90;0.90;;;6.90;99.90;;;;;;5028212;28;20522;-60
2024/02/19 04:26:23;;;;;;;1.00;0.87;;;6.90;99.90;;;;;;5028088;28;20490;-59
2024/02/19 04:28:53;;;;;;;3.03;1.10;;;6.80;99.90;;;;;;5024323;28;20593;-60
2024/02/19 04:31:21;;;;;;;5.23;1.30;;;6.80;99.90;;;;;;5026396;28;20470;-60
2024/02/19 04:33:49;;;;;;;1.40;1.10;;;6.80;99.90;;;;;;5031036;28;20628;-59
2024/02/19 04:36:17;;;;;;;2.37;0.90;;;6.80;99.90;;;;;;5025364;28;20478;-60
2024/02/19 04:38:45;;;;;;;1.40;1.30;;;6.80;99.90;;;;;;5029489;28;20498;-60
2024/02/19 04:41:13;;;;;;;2.30;1.50;;;6.80;99.90;;;;;;5027540;28;21139;-59
2024/02/19 04:43:41;;;;;;;2.27;1.23;;;6.80;99.90;;;;;;5027662;28;21088;-64
2024/02/19 04:46:11;;;;;;;2.30;1.30;;;6.80;99.90;;;;;;5026829;28;20486;-60
2024/02/19 04:48:39;;;;;;;2.57;1.27;;;6.80;99.90;;;;;;5029280;28;20480;-59
2024/02/19 04:51:07;;;;;;;1.10;1.10;;;6.70;99.90;;;;;;5022002;28;20470;-59
2024/02/19 04:53:35;;;;;;;2.40;1.63;;;6.80;99.90;;;;;;5027740;28;20470;-59
2024/02/19 04:56:04;;;;;;;3.07;1.50;;;6.80;99.90;;;;;;5023250;28;20513;-59
2024/02/19 04:58:32;;;;;;;1.93;1.33;;;6.80;99.90;;;;;;5026145;28;20499;-59
2024/02/19 05:01:01;;;;;;;1.50;1.40;;;6.70;99.90;;;;;;5026164;28;20473;-59
2024/02/19 05:03:30;;;;;;;2.70;2.50;;;6.70;99.90;;;;;;5036211;28;20470;-60
2024/02/19 05:05:58;;;;;;;2.10;1.37;;;6.70;99.90;;;;;;5035744;28;20480;-60
2024/02/19 05:08:26;;;;;;;1.80;1.17;;;6.70;99.90;;;;;;5038099;28;20522;-60
2024/02/19 05:10:54;;;;;;;0.90;0.90;;;6.70;99.90;;;;;;5038150;28;20506;-60
2024/02/19 05:13:23;;;;;;;1.20;0.80;;;6.70;99.90;;;;;;5038284;28;20470;-60
2024/02/19 05:15:51;;;;;;;0.80;0.80;;;6.70;99.90;;;;;;5032616;28;20494;-60
2024/02/19 05:18:19;;;;;;;1.13;0.73;;;6.70;99.90;;;;;;5023964;28;20502;-60
2024/02/19 05:20:49;;;;;;;1.40;0.90;;;6.70;99.90;;;;;;5029274;28;20475;-59
2024/02/19 05:23:17;;;;;;;1.17;0.70;;;6.70;99.90;;;;;;5029967;28;20469;-60
2024/02/19 05:25:45;;;;;;;1.90;0.90;;;6.70;99.90;;;;;;5036276;28;20486;-60
2024/02/19 05:28:13;;;;;;;3.80;0.97;;;6.70;99.90;;;;;;5035184;28;21897;-60
2024/02/19 05:30:41;;;;;;;0.80;0.80;;;6.70;99.90;;;;;;5023422;28;20993;-60
2024/02/19 05:33:09;;;;;;;0.90;0.90;;;6.70;99.90;;;;;;5026089;28;20494;-60
2024/02/19 05:35:37;;;;;;;1.20;1.10;;;6.60;99.90;;;;;;5025951;28;20491;-60
2024/02/19 05:38:07;;;;;;;1.70;1.10;;;6.60;99.90;;;;;;5025935;28;20579;-60
2024/02/19 05:40:34;;;;;;;2.40;1.20;;;6.60;99.90;;;;;;5027547;28;20961;-60
2024/02/19 05:43:02;;;;;;;1.50;1.40;;;6.60;99.90;;;;;;5025806;28;20593;-59
2024/02/19 05:45:31;;;;;;;1.63;1.20;;;6.60;99.90;;;;;;5024451;28;20522;-60
2024/02/19 05:47:59;;;;;;;1.53;1.43;;;6.60;99.90;;;;;;5022577;28;20489;-59
2024/02/19 05:50:30;;;;;;;1.73;1.63;;;6.60;99.90;;;;;;5025292;28;20528;-60
2024/02/19 05:52:58;;;;;;;2.90;2.00;;;6.60;99.90;;;;;;5023354;28;20528;-60
2024/02/19 05:55:27;;;;;;;2.20;2.10;;;6.60;99.90;;;;;;5019910;28;20976;-60
2024/02/19 05:57:56;;;;;;;2.50;2.30;;;6.60;99.90;;;;;;5027537;28;24036;-59
2024/02/19 06:00:24;;;;;;;2.60;2.40;;;6.60;99.90;;;;;;5026992;28;21347;-60
2024/02/19 06:02:52;;;;;;;2.50;2.30;;;6.60;99.90;;;;;;5021741;28;20958;-60
2024/02/19 06:05:20;;;;;;;3.33;2.40;;;6.60;99.90;;;;;;5026058;28;21305;-60
2024/02/19 06:07:48;;;;;;;2.17;1.97;;;6.60;99.90;;;;;;5019355;28;20521;-60
2024/02/19 06:10:16;;;;;;;1.83;1.70;;;6.60;99.90;;;;;;5019780;28;20474;-60
2024/02/19 06:12:46;;;;;;;2.20;2.00;;;6.60;99.90;;;;;;5018874;28;20494;-59
2024/02/19 06:15:15;;;;;;;2.23;2.03;;;6.60;99.90;;;;;;5011786;28;20497;-61
2024/02/19 06:17:42;;;;;;;3.00;2.10;;;6.60;99.90;;;;;;5022375;28;20499;-59
2024/02/19 06:20:11;;;;;;;2.50;1.90;;;6.50;99.90;;;;;;5023451;28;20471;-58
2024/02/19 06:22:39;;;;;;;2.70;1.77;;;6.50;99.90;;;;;;5027937;28;20963;-60
2024/02/19 06:25:09;;;;;;;2.57;1.97;;;6.60;99.90;;;;;;5026033;28;20528;-60
2024/02/19 06:27:37;;;;;;;3.23;1.37;;;6.60;99.90;;;;;;5018782;28;21516;-59
2024/02/19 06:30:08;;;;;;;1.93;1.73;;;6.60;99.90;;;;;;5022411;28;20990;-60
2024/02/19 06:32:36;;;;;;;1.60;1.20;;;6.70;99.90;;;;;;5026489;28;20858;-60
2024/02/19 06:35:05;;;;;;;1.20;1.10;;;6.60;99.90;;;;;;5023735;28;20473;-59
2024/02/19 06:37:33;;;;;;;1.40;1.30;;;6.60;99.90;;;;;;5025348;28;20508;-59
2024/02/19 06:40:01;;;;;;;1.80;1.70;;;6.60;99.90;;;;;;5023987;28;20502;-60
2024/02/19 06:42:29;;;;;;;2.17;2.00;;;6.60;99.90;;;;;;5024521;28;20840;-60
2024/02/19 06:44:57;;;;;;;2.70;2.10;;;6.60;99.90;;;;;;5028697;28;20498;-60
2024/02/19 06:47:27;;;;;;;2.37;2.17;;;6.60;99.90;;;;;;5032374;28;20494;-59
2024/02/19 06:49:55;;;;;;;2.43;2.20;;;6.60;99.90;;;;;;5031787;28;20478;-60
2024/02/19 06:52:23;;;;;;;2.57;2.27;;;6.60;99.90;;;;;;5025912;28;21674;-60
2024/02/19 06:54:51;;;;;;;2.83;2.20;;;6.60;99.90;;;;;;5027293;28;20699;-60
2024/02/19 06:57:19;;;;;;;2.57;1.90;;;6.70;99.90;;;;;;5029501;28;20505;-59
2024/02/19 06:59:48;;;;;;;2.20;1.73;;;6.70;99.90;;;;;;5032941;28;20974;-60
2024/02/19 07:02:16;;;;;;;3.07;1.77;;;6.70;99.90;;;;;;5034861;28;20471;-60
2024/02/19 07:04:46;;;;;;;4.23;1.90;;;6.70;99.90;;;;;;5038367;28;20474;-60
2024/02/19 07:07:14;;;;;;;1.90;1.60;;;6.70;99.90;;;;;;5039293;28;20541;-60
2024/02/19 07:09:42;;;;;;;1.90;1.70;;;6.80;99.90;;;;;;5039853;28;20455;-60
2024/02/19 07:12:11;;;;;;;1.80;1.70;;;6.80;99.90;;;;;;5038281;28;20462;-60
2024/02/19 07:14:39;;;;;;;2.50;1.83;;;6.80;99.90;;;;;;5040174;28;20914;-60
2024/02/19 07:17:06;;;;;;;2.13;1.60;;;6.80;99.90;;;;;;5038357;28;20508;-60
2024/02/19 07:19:34;;;;;;;2.67;1.87;;;6.90;99.90;;;;;;5040563;28;20544;-60
2024/02/19 07:22:05;;;;;;;2.53;2.07;;;6.90;99.90;;;;;;5037901;28;20486;-60
2024/02/19 07:24:33;;;;;;;2.03;1.50;;;6.90;99.90;;;;;;5037673;28;20467;-59
2024/02/19 07:27:01;;;;;;;2.50;1.53;;;6.90;99.90;;;;;;5039185;28;20544;-60
2024/02/19 07:29:29;;;;;;;1.70;1.60;;;6.90;99.90;;;;;;5038471;28;20521;-60
2024/02/19 07:31:57;;;;;;;1.47;1.37;;;6.90;99.90;;;;;;5035174;28;20537;-59
2024/02/19 07:34:25;;;;;;;1.67;1.30;;;7.00;99.90;;;;;;5034628;28;20496;-60
2024/02/19 07:36:54;;;;;;;1.50;1.40;;;7.00;99.90;;;;;;5032628;28;20573;-60
2024/02/19 07:39:23;;;;;;;2.13;1.23;;;7.00;99.90;;;;;;5022749;28;20501;-60
2024/02/19 07:41:51;;;;;;;3.00;1.47;;;7.10;99.90;;;;;;5030876;28;20916;-60
2024/02/19 07:44:19;;;;;;;3.50;1.30;;;7.10;99.90;;;;;;5035232;28;20477;-60
2024/02/19 07:46:47;;;;;;;3.30;1.67;;;7.20;99.90;;;;;;5033608;28;20585;-60
2024/02/19 07:49:16;;;;;;;1.63;1.30;;;7.20;99.90;;;;;;5027069;28;20463;-60
2024/02/19 07:51:44;;;;;;;2.57;1.00;;;7.20;99.90;;;;;;5032624;28;20510;-60
2024/02/19 07:54:12;;;;;;;2.10;1.50;;;7.20;99.90;;;;;;5034939;28;20971;-60
2024/02/19 07:56:41;;;;;;;1.30;1.10;;;7.20;99.90;;;;;;5031453;28;21094;-59
2024/02/19 07:59:09;;;;;;;2.50;1.13;;;7.20;99.90;;;;;;5032028;28;21106;-59
2024/02/19 08:01:37;;;;;;;1.60;1.10;;;7.30;99.90;;;;;;5034824;28;20505;-59
2024/02/19 08:04:05;;;;;;;1.43;1.03;;;7.30;99.90;;;;;;5034886;28;20510;-59
2024/02/19 08:06:33;;;;;;;2.10;1.00;;;7.30;99.90;;;;;;5033064;28;20861;-59
2024/02/19 08:09:04;;;;;;;2.70;1.20;;;7.30;99.90;;;;;;5030487;28;20602;-60
2024/02/19 08:11:32;;;;;;;2.10;1.10;;;7.40;99.90;;;;;;5033566;28;20494;-60
2024/02/19 08:14:02;;;;;;;0.90;0.77;;;7.40;99.90;;;;;;5032296;28;20813;-60
2024/02/19 08:16:30;;;;;;;1.07;0.80;;;7.50;99.90;;;;;;5034103;28;20490;-59
2024/02/19 08:18:58;;;;;;;1.90;0.93;;;7.40;99.90;;;;;;5032698;28;20637;-60
2024/02/19 08:21:27;;;;;;;1.83;1.03;;;7.50;99.90;;;;;;5032191;28;20482;-60
2024/02/19 08:23:55;;;;;;;2.13;1.20;;;7.50;99.90;;;;;;5031733;28;21086;-60
2024/02/19 08:26:23;;;;;;;2.00;1.30;;;7.50;99.90;;;;;;5028992;28;20588;-60
2024/02/19 08:28:52;;;;;;;1.87;1.47;;;7.50;99.90;;;;;;5033262;28;20850;-60
2024/02/19 08:31:23;;;;;;;3.20;1.40;;;7.50;99.90;;;;;;5028132;28;20814;-59
2024/02/19 08:33:51;;;;;;;1.80;1.47;;;7.50;99.90;;;;;;5023535;28;20475;-60
2024/02/19 08:36:20;;;;;;;2.27;1.70;;;7.60;99.90;;;;;;5030398;28;20586;-60
2024/02/19 08:38:52;;;;;;;3.27;1.90;;;7.60;99.90;;;;;;5034907;28;20559;-60
2024/02/19 08:41:20;;;;;;;4.63;2.33;;;7.60;99.90;;;;;;5032307;28;20478;-60
2024/02/19 08:43:49;;;;;;;4.70;1.60;;;7.60;99.90;;;;;;5032397;28;20972;-59
2024/02/19 08:46:17;;;;;;;5.43;2.20;;;7.60;99.90;;;;;;5032186;28;21213;-60
2024/02/19 08:48:47;;;;;;;3.60;2.03;;;7.70;99.90;;;;;;5033499;28;20486;-59
2024/02/19 08:51:15;;;;;;;5.13;1.93;;;7.70;99.90;;;;;;5033646;28;20498;-58
2024/02/19 08:53:43;;;;;;;3.73;2.30;;;7.70;99.90;;;;;;5032537;28;20490;-59
2024/02/19 08:56:13;;;;;;;5.63;2.73;;;7.70;99.90;;;;;;5031126;28;21041;-60
2024/02/19 08:58:41;;;;;;;6.07;2.27;;;7.70;99.90;;;;;;5028735;28;20950;-57
2024/02/19 09:01:11;;;;;;;4.27;2.23;;;7.80;99.90;;;;;;5029310;28;20598;-57
2024/02/19 09:03:40;;;;;;;4.33;1.90;;;7.80;99.90;;;;;;5029578;28;20494;-58
2024/02/19 09:06:10;;;;;;;3.33;1.80;;;7.80;99.90;;;;;;5030421;28;20594;-57
2024/02/19 09:08:38;;;;;;;4.93;2.03;;;7.90;99.90;;;;;;5029798;28;20490;-58
2024/02/19 09:11:06;;;;;;;2.63;1.57;;;7.90;99.90;;;;;;5030531;28;20490;-57
2024/02/19 09:13:35;;;;;;;4.03;2.00;;;8.00;99.90;;;;;;5033717;28;21054;-56
2024/02/19 09:16:03;;;;;;;4.23;1.20;;;8.00;99.90;;;;;;5032209;28;20493;-58
2024/02/19 09:18:32;;;;;;;2.70;1.80;;;8.10;99.90;;;;;;5028265;28;20494;-57
2024/02/19 09:21:00;;;;;;;3.07;1.33;;;8.10;99.90;;;;;;5032939;28;20556;-57
2024/02/19 09:23:30;;;;;;;3.30;1.60;;;8.10;99.90;;;;;;5030594;28;20469;-57
2024/02/19 09:25:58;;;;;;;2.73;2.00;;;8.10;99.90;;;;;;5029848;28;20503;-57
2024/02/19 09:28:26;;;;;;;3.00;1.40;;;8.20;99.90;;;;;;5032249;28;20505;-57
2024/02/19 09:30:54;;;;;;;3.37;1.93;;;8.20;99.90;;;;;;5028849;28;20475;-57
2024/02/19 09:33:23;;;;;;;4.17;1.60;;;8.20;99.90;;;;;;5030839;28;20478;-58
2024/02/19 09:35:51;;;;;;;6.63;2.00;;;8.20;99.90;;;;;;5034031;28;20575;-57
2024/02/19 09:38:19;;;;;;;9.00;3.03;;;8.30;99.90;;;;;;5028763;28;21274;-58
2024/02/19 09:40:49;;;;;;;6.57;2.07;;;8.30;99.90;;;;;;5031703;28;20535;-58
2024/02/19 09:43:18;;;;;;;3.10;1.90;;;8.30;99.90;;;;;;5027530;28;20944;-57
2024/02/19 09:45:46;;;;;;;6.70;4.00;;;8.30;99.90;;;;;;5031808;28;20495;-58
2024/02/19 09:48:18;;;;;;;4.87;1.93;;;8.30;99.90;;;;;;5023529;28;20518;-56
2024/02/19 09:50:48;;;;;;;3.87;2.60;;;8.20;99.90;;;;;;5031204;28;20492;-58
2024/02/19 09:53:21;;;;;;;3.43;2.20;;;8.30;99.90;;;;;;5028953;28;22366;-57
2024/02/19 09:55:51;;;;;;;1.93;1.70;;;8.30;99.90;;;;;;5032364;28;20486;-57
2024/02/19 09:58:19;;;;;;;3.03;1.87;;;8.30;99.90;;;;;;5031922;28;20540;-57
2024/02/19 10:00:48;;;;;;;3.40;1.80;;;8.40;99.90;;;;;;5031974;28;21256;-58
2024/02/19 10:03:19;;;;;;;6.07;3.13;;;8.40;99.90;;;;;;5030913;28;20481;-58
2024/02/19 10:05:47;;;;;;;2.73;1.90;;;8.40;99.90;;;;;;5033513;28;20491;-59
2024/02/19 10:08:17;;;;;;;5.23;2.50;;;8.40;99.90;;;;;;5028712;28;20603;-59
2024/02/19 10:10:46;;;;;;;4.50;2.50;;;8.40;99.90;;;;;;5031909;28;20848;-58
2024/02/19 10:13:16;;;;;;;4.30;2.23;;;8.40;99.90;;;;;;5030670;28;20586;-58
2024/02/19 10:15:45;;;;;;;2.40;2.13;;;8.40;99.90;;;;;;5030103;28;20852;-57
2024/02/19 10:18:14;;;;;;;7.40;2.80;;;8.40;99.90;;;;;;5031636;28;20487;-58
2024/02/19 10:20:45;;;;;;;7.33;2.30;;;8.50;99.90;;;;;;5031007;28;20499;-58
2024/02/19 10:23:14;;;;;;;5.53;2.50;;;8.60;99.90;;;;;;5032452;28;20488;-58
2024/02/19 10:25:42;;;;;;;6.80;2.37;;;8.60;99.90;;;;;;5026092;28;20491;-59
2024/02/19 10:28:10;;;;;;;6.40;2.20;;;8.60;99.90;;;;;;5024653;28;20580;-58
2024/02/19 10:30:40;;;;;;;9.30;2.23;;;8.70;99.90;;;;;;5035049;28;20459;-60
2024/02/19 10:33:08;;;;;;;2.77;1.97;;;8.70;99.90;;;;;;5031651;28;20561;-59
2024/02/19 10:35:36;;;;;;;3.97;2.00;;;8.80;99.90;;;;;;5034586;28;20498;-60
2024/02/19 10:38:05;;;;;;;2.80;1.70;;;8.80;99.90;;;;;;5036004;28;20541;-60
2024/02/19 10:40:33;;;;;;;4.47;2.30;;;8.80;99.90;;;;;;5034855;28;20580;-59
2024/02/19 10:43:03;;;;;;;3.80;1.50;;;8.80;99.90;;;;;;5032150;28;20975;-59
2024/02/19 10:45:31;;;;;;;3.23;1.70;;;8.90;99.90;;;;;;5034727;28;20487;-60
2024/02/19 10:48:01;;;;;;;2.40;1.10;;;8.90;99.90;;;;;;5039454;28;21019;-59
2024/02/19 10:50:33;;;;;;;1.20;0.70;;;8.90;99.90;;;;;;5030237;28;20843;-60
2024/02/19 10:53:05;;;;;;;2.00;0.90;;;8.90;99.90;;;;;;5036250;28;20911;-59
2024/02/19 10:55:36;;;;;;;1.17;0.70;;;8.90;99.90;;;;;;5034204;28;20605;-59
2024/02/19 10:58:26;;;;;;;2.60;0.80;;;8.90;99.90;;;;;;5032798;28;20495;-59
2024/02/19 11:01:01;;;;;;;2.47;0.90;;;8.90;99.90;;;;;;5031278;28;20501;-59
2024/02/19 11:03:31;;;;;;;1.07;0.90;;;8.90;99.90;;;;;;5034655;28;20473;-60
2024/02/19 11:06:02;;;;;;;2.70;1.37;;;8.90;99.90;;;;;;5029396;28;20486;-59
2024/02/19 11:08:34;;;;;;;1.87;1.27;;;8.90;99.90;;;;;;5033154;28;20483;-59
2024/02/19 11:11:05;;;;;;;2.37;1.00;;;9.00;99.90;;;;;;5035455;28;20997;-60
2024/02/19 11:13:37;;;;;;;3.83;1.33;;;9.00;99.90;;;;;;5037632;28;20470;-58
2024/02/19 11:16:16;;;;;;;2.40;1.73;;;9.00;99.90;;;;;;5039469;28;20563;-60
2024/02/19 11:18:46;;;;;;;2.77;1.90;;;9.20;99.90;;;;;;5039368;28;20471;-60
2024/02/19 11:21:15;;;;;;;7.53;1.70;;;9.30;99.90;;;;;;5037549;28;20490;-60
2024/02/19 11:23:43;;;;;;;5.00;2.23;;;9.30;99.90;;;;;;5039151;28;20842;-60
2024/02/19 11:26:11;;;;;;;6.33;2.67;;;9.40;99.90;;;;;;5039350;28;20486;-59
2024/02/19 11:28:41;;;;;;;5.40;2.30;;;9.40;99.90;;;;;;5039754;28;20479;-59
2024/02/19 11:31:14;;;;;;;7.20;2.37;;;9.40;99.90;;;;;;5025625;28;20554;-58
2024/02/19 11:33:42;;;;;;;8.03;2.87;;;9.50;99.90;;;;;;5022245;28;20470;-60
2024/02/19 11:36:11;;;;;;;5.93;2.60;;;9.50;99.90;;;;;;5025838;28;21298;-60
2024/02/19 11:38:39;;;;;;;6.60;2.60;;;9.60;99.90;;;;;;5027752;28;20572;-59
2024/02/19 11:41:10;;;;;;;7.10;3.10;;;9.80;99.90;;;;;;5027278;28;20606;-58
2024/02/19 11:43:39;;;;;;;5.70;2.77;;;10.00;99.90;;;;;;5029592;28;20462;-60
2024/02/19 11:46:07;;;;;;;8.77;2.80;;;10.20;99.90;;;;;;5028929;28;20578;-60
2024/02/19 11:48:36;;;;;;;4.00;2.80;;;10.30;99.90;;;;;;5028603;28;20493;-60
2024/02/19 11:51:06;;;;;;;9.13;3.43;;;10.50;99.90;;;;;;5030117;28;21263;-59
2024/02/19 11:53:36;;;;;;;8.83;3.57;;;10.50;99.90;;;;;;5025495;28;20511;-59
2024/02/19 11:56:04;;;;;;;6.13;3.70;;;10.50;99.90;;;;;;5029266;28;20484;-60
2024/02/19 11:58:33;;;;;;;6.50;3.63;;;10.50;99.90;;;;;;5030437;28;20871;-60
2024/02/19 12:01:01;;;;;;;8.67;4.07;;;10.70;99.90;;;;;;5032066;28;20500;-60
2024/02/19 12:03:29;;;;;;;10.87;4.87;;;11.00;99.90;;;;;;5027015;28;20478;-60
2024/02/19 12:05:58;;;;;;;8.90;3.90;;;11.40;99.90;;;;;;5028888;28;20510;-58
2024/02/19 12:08:29;;;;;;;5.40;3.37;;;12.40;99.90;;;;;;5027519;28;21029;-60
2024/02/19 12:10:58;;;;;;;5.73;3.53;;;13.00;99.90;;;;;;5028819;28;20502;-59
2024/02/19 12:13:27;;;;;;;5.43;3.27;;;13.00;99.90;;;;;;5028648;28;20483;-60
2024/02/19 12:15:55;;;;;;;7.43;3.73;;;12.70;99.90;;;;;;5029539;28;20871;-60
2024/02/19 12:18:24;;;;;;;5.70;3.13;;;12.70;99.90;;;;;;5028629;28;20487;-60
2024/02/19 12:20:52;;;;;;;7.20;4.00;;;12.60;99.90;;;;;;5028896;28;20545;-60
2024/02/19 12:23:20;;;;;;;5.77;3.73;;;12.80;99.90;;;;;;5026467;28;20485;-60
2024/02/19 12:25:48;;;;;;;5.97;3.10;;;13.40;99.90;;;;;;5026472;28;20637;-60
2024/02/19 12:28:17;;;;;;;5.70;3.10;;;13.30;99.90;;;;;;5027640;28;20502;-60
2024/02/19 12:30:45;;;;;;;4.50;3.13;;;12.80;99.90;;;;;;5027731;28;21156;-59
2024/02/19 12:33:13;;;;;;;6.07;3.40;;;12.40;99.90;;;;;;5028068;28;20488;-59
2024/02/19 12:35:46;;;;;;;6.10;3.13;;;12.00;99.90;;;;;;5026530;28;20934;-59
2024/02/19 12:38:14;;;;;;;5.77;3.27;;;11.80;99.90;;;;;;5029643;28;20813;-59
2024/02/19 12:40:42;;;;;;;5.00;3.10;;;11.50;99.90;;;;;;5035011;28;20481;-59
2024/02/19 12:43:11;;;;;;;8.70;3.60;;;11.30;99.90;;;;;;5031772;28;20487;-59
2024/02/19 12:45:40;;;;;;;4.90;3.03;;;11.20;99.90;;;;;;5028734;28;20567;-59
2024/02/19 12:48:09;;;;;;;7.03;3.60;;;11.00;99.90;;;;;;5030829;28;20545;-59
2024/02/19 12:50:37;;;;;;;3.93;2.97;;;10.90;99.90;;;;;;5034749;28;20521;-58
2024/02/19 12:53:05;;;;;;;5.87;3.00;;;10.80;99.90;;;;;;5033342;28;20485;-59
2024/02/19 12:55:33;;;;;;;9.43;3.13;;;10.70;99.90;;;;;;5035749;28;21021;-59
2024/02/19 12:58:01;;;;;;;8.63;3.93;;;10.70;99.90;;;;;;5031605;28;21028;-59
2024/02/19 13:00:29;;;;;;;7.20;2.80;;;10.70;99.90;;;;;;5033332;28;20470;-58
2024/02/19 13:02:59;;;;;;;5.47;2.90;;;10.60;99.90;;;;;;5032092;28;20586;-57